createdAt,value
2022-08-01T00:00:54.580Z,6.13
2022-08-01T00:03:56.655Z,7.68
2022-08-01T00:06:58.715Z,7.63
2022-08-01T00:10:00.811Z,5.00
2022-08-01T00:13:02.898Z,4.80
2022-08-01T00:16:05.123Z,6.28
2022-08-01T00:19:07.278Z,4.75
2022-08-01T00:22:09.787Z,5.93
2022-08-01T00:25:11.999Z,6.90
2022-08-01T00:28:14.554Z,5.68
2022-08-01T00:31:16.664Z,5.63
2022-08-01T00:34:18.764Z,7.80
2022-08-01T00:37:20.926Z,6.25
2022-08-01T00:40:23.499Z,5.57
2022-08-01T00:43:25.636Z,5.88
2022-08-01T00:46:27.716Z,4.80
2022-08-01T00:49:29.825Z,6.32
2022-08-01T00:52:32.842Z,6.32
2022-08-01T00:55:34.950Z,8.63
2022-08-01T00:58:37.423Z,5.60
2022-08-01T01:01:40.431Z,7.35
2022-08-01T01:04:48.726Z,6.20
2022-08-01T01:08:13.228Z,6.80
2022-08-01T01:11:27.037Z,6.22
2022-08-01T01:15:09.459Z,3.97
2022-08-01T01:18:16.231Z,5.10
2022-08-01T01:21:18.251Z,4.70
2022-08-01T01:24:50.932Z,4.53
2022-08-01T01:28:09.690Z,4.57
2022-08-01T01:31:12.128Z,6.35
2022-08-01T01:34:15.030Z,7.32
2022-08-01T01:37:19.775Z,6.03
2022-08-01T01:40:23.303Z,7.43
2022-08-01T01:43:29.142Z,7.32
2022-08-01T01:46:35.944Z,5.25
2022-08-01T01:49:38.198Z,6.05
2022-08-01T01:52:41.125Z,4.05
2022-08-01T01:55:49.725Z,6.70
2022-08-01T01:58:57.582Z,8.35
2022-08-01T02:02:05.635Z,5.20
2022-08-01T02:05:10.231Z,4.95
2022-08-01T02:08:13.939Z,5.47
2022-08-01T02:11:23.074Z,4.10
2022-08-01T02:14:25.343Z,5.82
2022-08-01T02:17:27.483Z,4.68
2022-08-01T02:20:31.146Z,4.68
2022-08-01T02:23:34.801Z,5.28
2022-08-01T02:26:37.699Z,5.40
2022-08-01T02:29:59.503Z,5.22
2022-08-01T02:33:15.798Z,4.35
2022-08-01T02:36:30.324Z,4.43
2022-08-01T02:39:35.307Z,5.13
2022-08-01T02:42:37.899Z,4.35
2022-08-01T02:45:44.618Z,6.28
2022-08-01T02:48:46.878Z,5.68
2022-08-01T02:51:49.247Z,4.80
2022-08-01T02:54:52.679Z,3.38
2022-08-01T02:57:59.314Z,7.05
2022-08-01T03:01:03.334Z,3.85
2022-08-01T03:04:06.224Z,8.23
2022-08-01T03:07:10.407Z,5.32
2022-08-01T03:10:12.563Z,7.47
2022-08-01T03:13:14.761Z,2.80
2022-08-01T03:16:16.951Z,4.47
2022-08-01T03:19:19.538Z,6.65
2022-08-01T03:22:24.027Z,5.70
2022-08-01T03:25:26.154Z,5.65
2022-08-01T03:28:29.568Z,4.20
2022-08-01T03:31:31.848Z,7.32
2022-08-01T03:34:33.999Z,7.32
2022-08-01T03:38:06.302Z,7.85
2022-08-01T03:41:16.879Z,5.45
2022-08-01T03:44:21.879Z,5.88
2022-08-01T03:47:27.364Z,9.32
2022-08-01T03:50:30.918Z,5.82
2022-08-01T03:53:33.282Z,4.70
2022-08-01T03:56:35.398Z,8.35
2022-08-01T03:59:40.610Z,5.55
2022-08-01T04:02:42.786Z,4.78
2022-08-01T04:05:44.986Z,5.80
2022-08-01T04:08:56.544Z,4.57
2022-08-01T04:12:01.033Z,4.47
2022-08-01T04:15:11.098Z,4.82
2022-08-01T04:18:13.174Z,5.88
2022-08-01T04:21:15.533Z,4.75
2022-08-01T04:24:19.468Z,5.38
2022-08-01T04:27:48.486Z,5.20
2022-08-01T04:30:59.726Z,3.90
2022-08-01T04:34:05.875Z,7.13
2022-08-01T04:37:10.643Z,7.43
2022-08-01T04:40:15.243Z,8.77
2022-08-01T04:43:17.334Z,4.35
2022-08-01T04:46:19.527Z,7.93
2022-08-01T04:49:25.432Z,5.95
2022-08-01T04:52:38.092Z,5.53
2022-08-01T04:55:40.511Z,7.68
2022-08-01T04:58:43.234Z,3.63
2022-08-01T05:01:50.821Z,5.30
2022-08-01T05:04:52.924Z,5.75
2022-08-01T05:07:55.134Z,7.13
2022-08-01T05:10:57.207Z,7.82
2022-08-01T05:13:59.304Z,6.85
2022-08-01T05:17:04.887Z,7.68
2022-08-01T05:20:07.486Z,7.63
2022-08-01T05:23:10.983Z,4.55
2022-08-01T05:26:19.320Z,7.28
2022-08-01T05:29:21.379Z,6.78
2022-08-01T05:32:23.441Z,4.95
2022-08-01T05:35:48.097Z,4.80
2022-08-01T05:38:47.614Z,3.67
2022-08-01T05:41:49.688Z,4.95
2022-08-01T05:44:51.876Z,5.10
2022-08-01T05:47:54.139Z,5.93
2022-08-01T05:50:58.582Z,6.28
2022-08-01T05:54:01.119Z,8.50
2022-08-01T05:57:03.667Z,6.93
2022-08-01T06:00:06.892Z,6.57
2022-08-01T06:03:15.328Z,7.97
2022-08-01T06:06:17.706Z,6.78
2022-08-01T06:09:19.844Z,5.45
2022-08-01T06:12:21.916Z,5.68
2022-08-01T06:15:25.454Z,5.13
2022-08-01T06:18:27.620Z,4.72
2022-08-01T06:21:29.704Z,4.03
2022-08-01T06:24:31.922Z,4.03
2022-08-01T06:27:36.436Z,5.47
2022-08-01T06:30:38.522Z,3.63
2022-08-01T06:33:40.801Z,4.32
2022-08-01T06:36:42.867Z,5.80
2022-08-01T06:39:44.955Z,3.75
2022-08-01T06:42:47.648Z,6.72
2022-08-01T06:45:49.912Z,6.55
2022-08-01T06:48:52.007Z,4.60
2022-08-01T06:51:54.151Z,4.05
2022-08-01T06:54:56.223Z,5.43
2022-08-01T06:57:58.393Z,4.85
2022-08-01T07:01:00.517Z,3.67
2022-08-01T07:04:03.699Z,5.78
2022-08-01T07:07:05.861Z,3.92
2022-08-01T07:10:09.573Z,3.58
2022-08-01T07:13:13.240Z,4.72
2022-08-01T07:16:15.823Z,4.68
2022-08-01T07:19:18.211Z,4.50
2022-08-01T07:22:23.225Z,4.57
2022-08-01T07:25:25.791Z,5.35
2022-08-01T07:28:28.569Z,5.18
2022-08-01T07:31:32.514Z,5.53
2022-08-01T07:34:34.735Z,5.22
2022-08-01T07:37:44.287Z,6.45
2022-08-01T07:40:51.374Z,5.63
2022-08-01T07:43:58.002Z,3.33
2022-08-01T07:47:02.786Z,5.13
2022-08-01T07:50:06.872Z,6.90
2022-08-01T07:53:11.173Z,2.08
2022-08-01T07:56:13.229Z,3.33
2022-08-01T07:59:15.514Z,3.17
2022-08-01T08:02:28.289Z,3.33
2022-08-01T08:05:58.461Z,2.55
2022-08-01T08:08:54.479Z,3.50
2022-08-01T08:11:56.610Z,1.83
2022-08-01T08:15:02.105Z,3.40
2022-08-01T08:18:07.438Z,2.50
2022-08-01T08:21:09.523Z,4.55
2022-08-01T08:24:20.866Z,2.47
2022-08-01T08:27:29.076Z,2.28
2022-08-01T08:30:31.218Z,2.78
2022-08-01T08:33:33.514Z,3.35
2022-08-01T08:36:35.646Z,2.58
2022-08-01T08:39:41.854Z,4.35
2022-08-01T08:42:44.499Z,2.25
2022-08-01T08:45:58.928Z,2.85
2022-08-01T08:49:04.484Z,5.35
2022-08-01T08:52:09.267Z,3.58
2022-08-01T08:55:11.951Z,2.90
2022-08-01T08:58:14.463Z,2.92
2022-08-01T09:01:18.588Z,4.10
2022-08-01T09:04:26.091Z,3.00
2022-08-01T09:07:28.908Z,2.75
2022-08-01T09:10:30.983Z,3.70
2022-08-01T09:13:34.405Z,3.15
2022-08-01T09:16:37.782Z,2.55
2022-08-01T09:19:45.945Z,2.55
2022-08-01T09:22:48.093Z,3.30
2022-08-01T09:25:56.877Z,2.70
2022-08-01T09:29:06.440Z,1.75
2022-08-01T09:32:09.465Z,2.08
2022-08-01T09:35:30.745Z,2.85
2022-08-01T09:38:33.810Z,3.55
2022-08-01T09:41:37.565Z,2.08
2022-08-01T09:44:54.619Z,2.05
2022-08-01T09:47:57.529Z,2.90
2022-08-01T09:51:04.749Z,2.70
2022-08-01T09:54:11.395Z,3.15
2022-08-01T09:57:18.651Z,1.58
2022-08-01T10:03:42.822Z,2.05
2022-08-01T10:06:53.514Z,2.25
2022-08-01T10:09:55.673Z,2.03
2022-08-01T10:12:59.782Z,3.13
2022-08-01T10:16:02.347Z,2.50
2022-08-01T10:19:10.997Z,1.90
2022-08-01T10:22:19.947Z,2.70
2022-08-01T10:25:42.709Z,3.03
2022-08-01T10:28:45.867Z,2.05
2022-08-01T10:31:50.342Z,2.28
2022-08-01T10:34:52.994Z,3.22
2022-08-01T10:37:59.051Z,4.18
2022-08-01T10:41:01.164Z,2.65
2022-08-01T10:44:09.354Z,3.88
2022-08-01T10:47:14.201Z,2.08
2022-08-01T10:50:32.723Z,2.67
2022-08-01T10:53:42.818Z,2.28
2022-08-01T10:56:50.539Z,2.97
2022-08-01T11:00:01.585Z,2.78
2022-08-01T11:03:04.719Z,3.10
2022-08-01T11:06:07.547Z,2.97
2022-08-01T11:09:38.970Z,2.40
2022-08-01T11:12:41.839Z,2.05
2022-08-01T11:15:50.141Z,4.40
2022-08-01T11:18:52.998Z,2.50
2022-08-01T11:22:01.597Z,2.22
2022-08-01T11:25:04.591Z,2.42
2022-08-01T11:28:28.224Z,5.25
2022-08-01T11:31:37.491Z,2.42
2022-08-01T11:34:58.888Z,5.70
2022-08-01T11:38:29.089Z,2.40
2022-08-01T11:41:37.242Z,4.55
2022-08-01T11:44:51.273Z,2.50
2022-08-01T11:47:53.539Z,1.95
2022-08-01T11:50:57.299Z,3.75
2022-08-01T11:53:59.995Z,1.65
2022-08-01T11:57:33.922Z,5.18
2022-08-01T12:00:38.238Z,2.88
2022-08-01T12:03:46.146Z,3.90
2022-08-01T12:06:48.373Z,3.55
2022-08-01T12:10:15.278Z,3.63
2022-08-01T12:13:21.748Z,2.60
2022-08-01T12:16:23.990Z,2.40
2022-08-01T12:19:37.529Z,3.50
2022-08-01T12:22:39.769Z,4.03
2022-08-01T12:25:48.312Z,2.13
2022-08-01T12:28:52.227Z,2.50
2022-08-01T12:31:54.789Z,2.70
2022-08-01T12:34:57.116Z,2.70
2022-08-01T12:38:14.411Z,2.33
2022-08-01T12:41:16.528Z,2.85
2022-08-01T12:44:18.652Z,3.20
2022-08-01T12:47:21.300Z,3.80
2022-08-01T12:50:24.917Z,2.00
2022-08-01T12:53:40.886Z,4.53
2022-08-01T12:56:43.504Z,3.40
2022-08-01T12:59:49.470Z,3.50
2022-08-01T13:03:15.398Z,3.58
2022-08-01T13:06:18.206Z,4.35
2022-08-01T13:09:20.586Z,1.73
2022-08-01T13:12:25.359Z,4.07
2022-08-01T13:15:33.138Z,3.03
2022-08-01T13:18:35.949Z,4.20
2022-08-01T13:21:52.498Z,4.35
2022-08-01T13:25:20.800Z,3.33
2022-08-01T13:28:28.364Z,2.35
2022-08-01T13:31:34.593Z,2.20
2022-08-01T13:34:36.728Z,4.20
2022-08-01T13:37:43.320Z,1.95
2022-08-01T13:40:45.408Z,2.33
2022-08-01T13:43:58.390Z,2.33
2022-08-01T13:47:02.378Z,3.65
2022-08-01T13:50:17.977Z,2.08
2022-08-01T13:53:20.105Z,3.00
2022-08-01T13:56:22.261Z,1.58
2022-08-01T13:59:24.351Z,2.13
2022-08-01T14:02:28.036Z,1.88
2022-08-01T14:05:30.960Z,2.17
2022-08-01T14:08:33.074Z,2.10
2022-08-01T14:11:37.195Z,2.30
2022-08-01T14:14:39.808Z,2.38
2022-08-01T14:17:47.631Z,1.88
2022-08-01T14:20:50.669Z,2.05
2022-08-01T14:23:55.986Z,2.95
2022-08-01T14:26:58.112Z,2.63
2022-08-01T14:30:03.774Z,2.63
2022-08-01T14:33:06.284Z,2.33
2022-08-01T14:36:31.053Z,2.50
2022-08-01T14:39:30.567Z,1.88
2022-08-01T14:42:32.691Z,3.58
2022-08-01T14:45:34.833Z,3.22
2022-08-01T14:48:37.042Z,2.53
2022-08-01T14:51:39.502Z,2.50
2022-08-01T14:54:41.584Z,2.08
2022-08-01T14:57:43.660Z,2.35
2022-08-01T15:00:46.414Z,2.50
2022-08-01T15:03:49.075Z,3.22
2022-08-01T15:06:51.186Z,3.53
2022-08-01T15:09:53.999Z,2.10
2022-08-01T15:12:56.688Z,2.25
2022-08-01T15:16:00.162Z,2.00
2022-08-01T15:19:02.488Z,2.35
2022-08-01T15:22:04.958Z,2.97
2022-08-01T15:25:07.599Z,2.25
2022-08-01T15:28:10.834Z,2.83
2022-08-01T15:31:14.399Z,2.25
2022-08-01T15:34:16.673Z,2.70
2022-08-01T15:37:18.787Z,2.40
2022-08-01T15:40:21.369Z,1.80
2022-08-01T15:43:23.465Z,2.42
2022-08-01T15:46:29.604Z,2.95
2022-08-01T15:49:32.049Z,2.65
2022-08-01T15:52:34.174Z,1.98
2022-08-01T15:55:38.283Z,2.00
2022-08-01T15:58:40.624Z,2.45
2022-08-01T16:01:42.857Z,2.33
2022-08-01T16:04:45.135Z,1.63
2022-08-01T16:07:57.067Z,1.92
2022-08-01T16:11:03.716Z,3.00
2022-08-01T16:14:06.707Z,2.20
2022-08-01T16:17:08.862Z,2.65
2022-08-01T16:20:11.411Z,2.70
2022-08-01T16:23:15.043Z,2.15
2022-08-01T16:26:27.390Z,2.00
2022-08-01T16:29:32.005Z,2.22
2022-08-01T16:32:40.434Z,2.38
2022-08-01T16:35:51.300Z,2.45
2022-08-01T16:38:53.412Z,2.03
2022-08-01T16:41:55.584Z,2.28
2022-08-01T16:44:59.486Z,2.20
2022-08-01T16:48:01.626Z,3.40
2022-08-01T16:51:04.186Z,2.22
2022-08-01T16:54:24.670Z,2.80
2022-08-01T16:57:28.643Z,3.40
2022-08-01T17:00:30.775Z,2.80
2022-08-01T17:03:51.642Z,2.33
2022-08-01T17:06:54.927Z,3.35
2022-08-01T17:09:57.063Z,4.15
2022-08-01T17:12:59.234Z,2.25
2022-08-01T17:16:01.384Z,2.47
2022-08-01T17:19:03.797Z,3.20
2022-08-01T17:22:06.027Z,2.65
2022-08-01T17:25:09.123Z,3.03
2022-08-01T17:28:18.411Z,4.10
2022-08-01T17:31:20.497Z,2.80
2022-08-01T17:34:22.608Z,3.30
2022-08-01T17:37:25.595Z,4.50
2022-08-01T17:40:40.180Z,3.30
2022-08-01T17:43:42.803Z,2.42
2022-08-01T17:46:44.882Z,4.18
2022-08-01T17:49:54.891Z,5.72
2022-08-01T17:52:57.363Z,2.97
2022-08-01T17:56:00.792Z,2.97
2022-08-01T17:59:03.034Z,3.55
2022-08-01T18:02:05.367Z,3.00
2022-08-01T18:05:09.504Z,3.40
2022-08-01T18:08:13.019Z,2.63
2022-08-01T18:11:16.609Z,2.83
2022-08-01T18:14:18.836Z,2.60
2022-08-01T18:17:21.199Z,2.85
2022-08-01T18:20:24.298Z,2.85
2022-08-01T18:23:26.499Z,2.50
2022-08-01T18:26:29.270Z,2.47
2022-08-01T18:29:47.156Z,4.88
2022-08-01T18:32:50.799Z,3.20
2022-08-01T18:35:53.714Z,3.85
2022-08-01T18:38:56.420Z,3.05
2022-08-01T18:42:00.180Z,3.25
2022-08-01T18:45:02.468Z,2.95
2022-08-01T18:48:05.195Z,2.70
2022-08-01T18:51:08.571Z,3.83
2022-08-01T18:54:14.854Z,2.57
2022-08-01T18:57:17.071Z,3.10
2022-08-01T19:00:23.257Z,3.42
2022-08-01T19:03:25.409Z,2.72
2022-08-01T19:06:28.367Z,2.88
2022-08-01T19:09:30.476Z,3.47
2022-08-01T19:12:32.599Z,4.32
2022-08-01T19:15:35.426Z,4.50
2022-08-01T19:18:38.222Z,2.83
2022-08-01T19:21:44.643Z,3.92
2022-08-01T19:24:47.214Z,3.25
2022-08-01T19:27:49.972Z,3.30
2022-08-01T19:30:53.661Z,3.38
2022-08-01T19:33:57.240Z,4.50
2022-08-01T19:36:59.381Z,4.57
2022-08-01T19:40:01.502Z,3.47
2022-08-01T19:43:03.612Z,3.47
2022-08-01T19:46:06.151Z,5.10
2022-08-01T19:49:21.880Z,3.15
2022-08-01T19:52:26.192Z,3.00
2022-08-01T19:55:28.761Z,3.25
2022-08-01T19:58:30.891Z,4.10
2022-08-01T20:01:32.967Z,2.95
2022-08-01T20:04:35.397Z,3.38
2022-08-01T20:07:37.516Z,2.97
2022-08-01T20:10:40.413Z,3.67
2022-08-01T20:13:42.511Z,3.75
2022-08-01T20:16:44.873Z,3.17
2022-08-01T20:19:47.959Z,3.95
2022-08-01T20:22:52.110Z,3.45
2022-08-01T20:25:58.384Z,3.47
2022-08-01T20:29:00.471Z,4.30
2022-08-01T20:32:02.657Z,3.28
2022-08-01T20:35:06.487Z,4.35
2022-08-01T20:38:08.595Z,2.92
2022-08-01T20:41:13.467Z,3.20
2022-08-01T20:44:15.544Z,3.15
2022-08-01T20:47:18.853Z,3.67
2022-08-01T20:50:54.224Z,3.35
2022-08-01T20:53:57.118Z,4.10
2022-08-01T20:57:00.894Z,3.38
2022-08-01T21:00:05.164Z,3.30
2022-08-01T21:03:19.531Z,3.10
2022-08-01T21:06:23.369Z,2.50
2022-08-01T21:09:25.654Z,2.90
2022-08-01T21:12:43.753Z,3.17
2022-08-01T21:15:59.905Z,3.38
2022-08-01T21:19:19.951Z,2.92
2022-08-01T21:22:35.449Z,5.82
2022-08-01T21:25:37.619Z,2.85
2022-08-01T21:28:40.216Z,2.40
2022-08-01T21:32:16.483Z,2.25
2022-08-01T21:35:19.053Z,2.55
2022-08-01T21:38:22.043Z,4.05
2022-08-01T21:41:56.052Z,3.08
2022-08-01T21:44:51.143Z,2.60
2022-08-01T21:47:53.500Z,2.88
2022-08-01T21:51:07.567Z,2.70
2022-08-01T21:54:21.341Z,3.17
2022-08-01T21:57:47.777Z,2.60
2022-08-01T22:00:54.190Z,2.72
2022-08-01T22:03:56.641Z,2.53
2022-08-01T22:06:58.697Z,1.73
2022-08-01T22:10:05.472Z,2.55
2022-08-01T22:13:07.909Z,1.90
2022-08-01T22:16:09.990Z,1.77
2022-08-01T22:19:43.867Z,2.42
2022-08-01T22:22:51.651Z,2.22
2022-08-01T22:25:55.463Z,3.60
2022-08-01T22:28:57.579Z,2.25
2022-08-01T22:31:59.674Z,1.85
2022-08-01T22:35:03.892Z,1.88
2022-08-01T22:38:06.021Z,1.80
2022-08-01T22:41:16.470Z,2.58
2022-08-01T22:44:25.327Z,4.13
2022-08-01T22:47:49.799Z,2.35
2022-08-01T22:51:01.289Z,2.50
2022-08-01T22:54:09.803Z,2.60
2022-08-01T22:57:16.841Z,2.38
2022-08-01T23:00:19.035Z,2.90
2022-08-01T23:03:33.326Z,3.03
2022-08-01T23:06:45.038Z,2.40
2022-08-01T23:09:53.472Z,2.42
2022-08-01T23:12:56.686Z,2.40
2022-08-01T23:16:00.230Z,2.38
2022-08-01T23:19:02.325Z,2.70
2022-08-01T23:22:04.828Z,2.55
2022-08-01T23:25:12.584Z,2.83
2022-08-01T23:28:15.661Z,2.53
2022-08-01T23:31:17.753Z,2.70
2022-08-01T23:34:20.291Z,1.95
2022-08-01T23:37:22.517Z,4.75
2022-08-01T23:40:24.838Z,2.00
2022-08-01T23:43:27.279Z,2.75
2022-08-01T23:46:29.928Z,3.95
2022-08-01T23:49:32.182Z,4.40
2022-08-01T23:52:34.471Z,2.17
2022-08-01T23:55:38.982Z,4.05
2022-08-01T23:58:41.116Z,4.25
